createdAt,value
2023-03-16T00:01:12.881Z,1.95
2023-03-16T00:03:58.128Z,2.40
2023-03-16T00:06:42.957Z,2.88
2023-03-16T00:09:31.133Z,2.00
2023-03-16T00:12:19.448Z,2.58
2023-03-16T00:15:05.116Z,2.65
2023-03-16T00:17:51.591Z,2.35
2023-03-16T00:20:36.432Z,2.63
2023-03-16T00:23:27.169Z,2.33
2023-03-16T00:26:13.009Z,2.55
2023-03-16T00:28:57.896Z,2.33
2023-03-16T00:31:43.903Z,2.90
2023-03-16T00:34:30.354Z,2.55
2023-03-16T00:37:18.497Z,2.70
2023-03-16T00:40:04.496Z,2.33
2023-03-16T00:42:49.746Z,2.28
2023-03-16T00:45:35.054Z,2.75
2023-03-16T00:48:21.176Z,2.55
2023-03-16T00:51:09.194Z,2.60
2023-03-16T00:53:54.013Z,2.50
2023-03-16T00:56:38.839Z,2.40
2023-03-16T00:59:26.103Z,2.55
2023-03-16T01:02:12.341Z,2.42
2023-03-16T01:04:57.600Z,2.10
2023-03-16T01:07:42.932Z,2.30
2023-03-16T01:10:28.407Z,2.60
2023-03-16T01:13:13.713Z,2.63
2023-03-16T01:15:59.891Z,3.00
2023-03-16T01:18:44.911Z,2.53
2023-03-16T01:21:30.333Z,2.47
2023-03-16T01:24:15.231Z,2.30
2023-03-16T01:27:00.629Z,2.60
2023-03-16T01:29:45.798Z,2.15
2023-03-16T01:32:31.107Z,2.60
2023-03-16T01:35:15.932Z,2.22
2023-03-16T01:38:00.899Z,2.72
2023-03-16T01:40:46.148Z,2.50
2023-03-16T01:43:33.273Z,2.80
2023-03-16T01:46:22.877Z,2.88
2023-03-16T01:49:26.633Z,2.72
2023-03-16T01:52:21.164Z,3.03
2023-03-16T01:55:08.843Z,2.38
2023-03-16T02:00:42.167Z,2.65
2023-03-16T02:03:28.042Z,2.55
2023-03-16T02:06:19.006Z,2.85
2023-03-16T02:09:05.652Z,2.60
2023-03-16T02:11:51.911Z,2.83
2023-03-16T02:14:36.844Z,3.85
2023-03-16T02:17:25.216Z,3.50
2023-03-16T02:20:26.333Z,2.97
2023-03-16T02:23:18.415Z,3.30
2023-03-16T02:26:27.977Z,2.78
2023-03-16T02:29:41.678Z,3.30
2023-03-16T02:32:28.944Z,2.60
2023-03-16T02:35:14.356Z,3.08
2023-03-16T02:37:59.976Z,2.92
2023-03-16T02:40:52.885Z,2.60
2023-03-16T02:43:42.565Z,2.50
2023-03-16T02:46:28.878Z,2.70
2023-03-16T02:49:21.804Z,2.33
2023-03-16T02:52:08.149Z,3.05
2023-03-16T02:54:53.095Z,2.38
2023-03-16T02:57:38.226Z,2.78
2023-03-16T03:00:23.155Z,2.67
2023-03-16T03:03:09.303Z,2.47
2023-03-16T03:05:54.323Z,2.25
2023-03-16T03:08:39.114Z,2.28
2023-03-16T03:11:25.219Z,2.03
2023-03-16T03:14:10.411Z,2.40
2023-03-16T03:16:56.310Z,2.10
2023-03-16T03:19:41.423Z,2.10
2023-03-16T03:22:27.904Z,2.42
2023-03-16T03:25:15.029Z,2.40
2023-03-16T03:28:01.982Z,2.40
2023-03-16T03:30:47.034Z,3.25
2023-03-16T03:33:33.578Z,2.70
2023-03-16T03:36:18.497Z,2.38
2023-03-16T03:39:05.034Z,2.83
2023-03-16T03:41:54.400Z,2.55
2023-03-16T03:44:39.414Z,2.15
2023-03-16T03:47:24.563Z,2.65
2023-03-16T03:50:11.269Z,2.58
2023-03-16T03:52:56.191Z,2.75
2023-03-16T03:55:41.218Z,2.55
2023-03-16T03:58:26.665Z,2.78
2023-03-16T04:01:11.490Z,2.30
2023-03-16T04:03:56.589Z,2.78
2023-03-16T04:06:41.641Z,2.30
2023-03-16T04:09:27.029Z,2.17
2023-03-16T04:12:12.300Z,2.72
2023-03-16T04:14:57.689Z,2.03
2023-03-16T04:17:42.902Z,2.22
2023-03-16T04:20:29.717Z,1.98
2023-03-16T04:23:16.549Z,2.20
2023-03-16T04:26:01.857Z,1.90
2023-03-16T04:28:47.782Z,2.10
2023-03-16T04:31:33.431Z,1.98
2023-03-16T04:34:18.227Z,1.90
2023-03-16T04:37:03.093Z,2.17
2023-03-16T04:39:48.274Z,2.05
2023-03-16T04:42:33.181Z,2.42
2023-03-16T04:45:18.593Z,3.13
2023-03-16T04:48:03.952Z,2.40
2023-03-16T04:50:49.268Z,2.20
2023-03-16T04:53:34.076Z,2.10
2023-03-16T04:56:19.966Z,1.80
2023-03-16T04:59:05.044Z,1.80
2023-03-16T05:01:50.291Z,1.98
2023-03-16T05:04:35.409Z,1.48
2023-03-16T05:07:21.228Z,1.88
2023-03-16T05:10:07.235Z,1.77
2023-03-16T05:12:52.428Z,2.15
2023-03-16T05:15:37.366Z,2.08
2023-03-16T05:18:23.006Z,2.03
2023-03-16T05:21:08.294Z,1.77
2023-03-16T05:23:54.501Z,1.92
2023-03-16T05:26:39.629Z,1.50
2023-03-16T05:29:26.006Z,1.50
2023-03-16T05:32:11.539Z,1.83
2023-03-16T05:34:56.765Z,1.70
2023-03-16T05:37:42.901Z,1.90
2023-03-16T05:40:28.854Z,1.88
2023-03-16T05:43:13.845Z,1.80
2023-03-16T05:45:58.765Z,1.50
2023-03-16T05:48:43.652Z,1.52
2023-03-16T05:51:28.683Z,1.90
2023-03-16T05:54:13.848Z,2.08
2023-03-16T05:56:59.112Z,1.40
2023-03-16T05:59:44.290Z,1.50
2023-03-16T06:02:29.616Z,1.30
2023-03-16T06:05:15.736Z,1.50
2023-03-16T06:08:01.563Z,1.67
2023-03-16T06:10:48.110Z,1.23
2023-03-16T06:13:35.331Z,1.40
2023-03-16T06:16:21.094Z,1.60
2023-03-16T06:19:06.347Z,1.58
2023-03-16T06:21:51.034Z,0.98
2023-03-16T06:24:35.933Z,1.52
2023-03-16T06:27:21.329Z,1.45
2023-03-16T06:30:08.625Z,1.52
2023-03-16T06:32:53.704Z,1.25
2023-03-16T06:35:38.804Z,1.45
2023-03-16T06:38:26.133Z,1.50
2023-03-16T06:41:11.614Z,1.58
2023-03-16T06:43:57.219Z,1.52
2023-03-16T06:46:42.547Z,1.55
2023-03-16T06:49:28.630Z,1.35
2023-03-16T06:52:14.707Z,1.48
2023-03-16T06:54:59.593Z,1.20
2023-03-16T06:57:44.793Z,1.30
2023-03-16T07:00:30.634Z,1.42
2023-03-16T07:03:16.225Z,1.58
2023-03-16T07:06:01.537Z,1.08
2023-03-16T07:08:46.368Z,1.20
2023-03-16T07:11:32.513Z,1.50
2023-03-16T07:14:19.552Z,1.33
2023-03-16T07:17:04.731Z,1.60
2023-03-16T07:19:49.656Z,1.02
2023-03-16T07:22:35.424Z,1.27
2023-03-16T07:25:20.461Z,1.45
2023-03-16T07:28:06.031Z,1.35
2023-03-16T07:31:03.076Z,1.27
2023-03-16T07:33:49.541Z,1.17
2023-03-16T07:36:34.282Z,1.33
2023-03-16T07:39:19.661Z,1.30
2023-03-16T07:42:04.761Z,1.38
2023-03-16T07:44:51.817Z,1.23
2023-03-16T07:47:37.157Z,1.55
2023-03-16T07:50:24.641Z,1.38
2023-03-16T07:53:10.138Z,1.20
2023-03-16T07:55:55.744Z,1.10
2023-03-16T07:58:41.765Z,1.13
2023-03-16T08:01:27.165Z,1.30
2023-03-16T08:04:12.853Z,1.10
2023-03-16T08:07:00.158Z,1.20
2023-03-16T08:09:45.170Z,1.13
2023-03-16T08:12:30.163Z,1.40
2023-03-16T08:15:15.603Z,1.33
2023-03-16T08:18:02.464Z,1.00
2023-03-16T08:20:47.514Z,1.30
2023-03-16T08:23:33.519Z,1.30
2023-03-16T08:26:23.087Z,1.65
2023-03-16T08:29:07.818Z,1.20
2023-03-16T08:31:56.128Z,1.13
2023-03-16T08:34:42.115Z,1.00
2023-03-16T08:37:27.483Z,1.70
2023-03-16T08:40:17.018Z,1.17
2023-03-16T08:43:02.431Z,1.48
2023-03-16T08:45:48.310Z,1.42
2023-03-16T08:48:33.718Z,1.25
2023-03-16T08:51:19.341Z,1.15
2023-03-16T08:54:05.056Z,1.15
2023-03-16T08:56:52.640Z,1.30
2023-03-16T08:59:38.532Z,0.95
2023-03-16T09:02:25.244Z,1.10
2023-03-16T09:05:12.374Z,1.05
2023-03-16T09:07:57.604Z,0.90
2023-03-16T09:10:42.457Z,1.30
2023-03-16T09:13:29.980Z,1.02
2023-03-16T09:16:15.981Z,0.90
2023-03-16T09:19:01.371Z,0.88
2023-03-16T09:21:47.440Z,1.02
2023-03-16T09:24:32.845Z,1.02
2023-03-16T09:27:18.635Z,0.80
2023-03-16T09:30:05.398Z,0.95
2023-03-16T09:32:50.744Z,1.00
2023-03-16T09:35:37.407Z,1.30
2023-03-16T09:38:22.456Z,1.15
2023-03-16T09:41:10.915Z,0.88
2023-03-16T09:44:29.559Z,1.27
2023-03-16T09:47:16.550Z,1.23
2023-03-16T09:50:07.323Z,1.20
2023-03-16T09:53:14.258Z,1.20
2023-03-16T09:56:27.233Z,0.75
2023-03-16T09:59:15.145Z,0.95
2023-03-16T10:02:42.011Z,1.23
2023-03-16T10:05:28.568Z,1.02
2023-03-16T10:08:16.665Z,1.20
2023-03-16T10:11:04.880Z,0.70
2023-03-16T10:14:17.461Z,0.77
2023-03-16T10:17:40.509Z,0.80
2023-03-16T10:20:28.449Z,1.00
2023-03-16T10:23:20.443Z,1.50
2023-03-16T10:26:13.412Z,0.60
2023-03-16T10:29:01.841Z,1.00
2023-03-16T10:31:47.312Z,0.47
2023-03-16T10:34:32.558Z,0.95
2023-03-16T10:37:17.401Z,0.57
2023-03-16T10:40:09.345Z,0.95
2023-03-16T10:42:54.974Z,0.47
2023-03-16T10:45:47.099Z,0.73
2023-03-16T10:48:34.708Z,0.73
2023-03-16T10:51:25.604Z,0.73
2023-03-16T10:54:19.715Z,0.75
2023-03-16T11:00:21.539Z,0.68
2023-03-16T11:03:22.797Z,0.52
2023-03-16T11:06:21.138Z,0.60
2023-03-16T11:09:22.712Z,0.63
2023-03-16T11:12:35.244Z,0.70
2023-03-16T11:15:26.075Z,0.80
2023-03-16T11:18:25.306Z,0.68
2023-03-16T11:21:51.191Z,0.90
2023-03-16T11:24:52.473Z,0.93
2023-03-16T11:27:54.104Z,1.00
2023-03-16T11:31:01.273Z,1.00
2023-03-16T11:33:49.583Z,1.27
2023-03-16T11:36:44.074Z,1.00
2023-03-16T11:39:44.904Z,1.23
2023-03-16T11:42:42.891Z,1.20
2023-03-16T11:45:37.011Z,1.00
2023-03-16T11:48:48.685Z,0.98
2023-03-16T11:52:05.160Z,1.55
2023-03-16T11:55:03.419Z,1.00
2023-03-16T11:58:24.412Z,1.17
2023-03-16T12:01:25.759Z,1.00
2023-03-16T12:04:22.170Z,0.80
2023-03-16T12:07:25.775Z,1.35
2023-03-16T12:10:29.289Z,0.93
2023-03-16T12:13:35.781Z,0.90
2023-03-16T12:16:48.351Z,1.50
2023-03-16T12:19:42.166Z,1.38
2023-03-16T12:22:37.259Z,1.20
2023-03-16T12:25:27.788Z,0.68
2023-03-16T12:28:33.283Z,0.98
2023-03-16T12:31:43.019Z,1.00
2023-03-16T12:34:56.475Z,0.75
2023-03-16T12:37:48.197Z,0.60
2023-03-16T12:40:55.082Z,0.68
2023-03-16T12:43:52.010Z,0.65
2023-03-16T12:47:04.859Z,0.88
2023-03-16T12:49:51.948Z,0.88
2023-03-16T12:52:52.318Z,0.90
2023-03-16T12:55:38.192Z,1.08
2023-03-16T12:58:26.262Z,0.82
2023-03-16T13:01:13.303Z,0.47
2023-03-16T13:04:03.498Z,0.45
2023-03-16T13:07:03.071Z,0.80
2023-03-16T13:09:54.410Z,0.52
2023-03-16T13:12:41.603Z,0.82
2023-03-16T13:18:33.822Z,0.40
2023-03-16T13:21:41.181Z,0.90
2023-03-16T13:24:35.443Z,0.70
2023-03-16T13:27:25.425Z,1.05
2023-03-16T13:30:32.302Z,0.52
2023-03-16T13:33:25.507Z,1.05
2023-03-16T13:36:12.947Z,0.68
2023-03-16T13:42:10.662Z,0.82
2023-03-16T13:44:58.079Z,0.60
2023-03-16T13:47:45.208Z,0.82
2023-03-16T13:50:34.609Z,0.90
2023-03-16T13:53:28.439Z,1.00
2023-03-16T13:56:16.903Z,0.60
2023-03-16T13:59:04.532Z,0.95
2023-03-16T14:01:58.565Z,1.10
2023-03-16T14:04:43.838Z,1.13
2023-03-16T14:07:29.328Z,1.02
2023-03-16T14:10:20.382Z,1.10
2023-03-16T14:13:22.224Z,1.15
2023-03-16T14:16:12.524Z,1.67
2023-03-16T14:19:02.291Z,0.85
2023-03-16T14:21:47.443Z,0.50
2023-03-16T14:24:37.258Z,1.08
2023-03-16T14:27:41.670Z,1.00
2023-03-16T14:30:30.223Z,1.20
2023-03-16T14:33:28.704Z,0.80
2023-03-16T14:36:16.481Z,1.15
2023-03-16T14:39:14.205Z,0.90
2023-03-16T14:42:03.068Z,1.05
2023-03-16T14:44:49.968Z,0.85
2023-03-16T14:47:42.252Z,1.48
2023-03-16T14:50:27.944Z,1.30
2023-03-16T14:53:13.107Z,0.95
2023-03-16T14:55:59.318Z,1.13
2023-03-16T14:58:46.161Z,1.17
2023-03-16T15:01:31.340Z,1.33
2023-03-16T15:04:23.648Z,1.38
2023-03-16T15:07:29.455Z,1.25
2023-03-16T15:10:26.744Z,0.80
2023-03-16T15:13:35.230Z,1.35
2023-03-16T15:16:23.072Z,1.10
2023-03-16T15:19:09.125Z,0.98
2023-03-16T15:21:57.376Z,1.10
2023-03-16T15:24:43.928Z,1.30
2023-03-16T15:27:35.016Z,1.40
2023-03-16T15:30:26.313Z,1.55
2023-03-16T15:33:12.867Z,1.17
2023-03-16T15:35:59.997Z,1.33
2023-03-16T15:38:54.067Z,1.13
2023-03-16T15:41:47.589Z,1.25
2023-03-16T15:44:33.069Z,1.30
2023-03-16T15:47:19.430Z,1.30
2023-03-16T15:50:06.057Z,1.30
2023-03-16T15:52:59.468Z,1.55
2023-03-16T15:55:47.353Z,1.85
2023-03-16T15:58:34.860Z,1.50
2023-03-16T16:01:29.929Z,1.10
2023-03-16T16:04:19.445Z,1.08
2023-03-16T16:07:11.134Z,1.17
2023-03-16T16:09:56.489Z,1.20
2023-03-16T16:12:42.132Z,1.50
2023-03-16T16:15:35.981Z,1.63
2023-03-16T16:18:30.620Z,1.40
2023-03-16T16:21:23.225Z,1.27
2023-03-16T16:26:56.087Z,1.02
2023-03-16T16:29:40.978Z,1.50
2023-03-16T16:32:26.512Z,1.95
2023-03-16T16:35:18.096Z,1.27
2023-03-16T16:38:04.670Z,1.20
2023-03-16T16:40:50.897Z,1.40
2023-03-16T16:43:42.424Z,1.35
2023-03-16T16:46:30.118Z,1.17
2023-03-16T16:52:17.741Z,1.58
2023-03-16T16:55:03.154Z,1.73
2023-03-16T16:57:53.665Z,1.58
2023-03-16T17:00:39.767Z,8.20
2023-03-16T17:03:30.080Z,3.88
2023-03-16T17:06:17.653Z,2.90
2023-03-16T17:09:03.156Z,2.08
2023-03-16T17:11:50.344Z,1.80
2023-03-16T17:14:35.766Z,2.10
2023-03-16T17:17:21.422Z,2.00
2023-03-16T17:20:17.572Z,1.60
2023-03-16T17:23:19.451Z,1.90
2023-03-16T17:26:30.725Z,1.80
2023-03-16T17:29:22.916Z,1.80
2023-03-16T17:32:18.422Z,1.80
2023-03-16T17:35:13.030Z,1.70
2023-03-16T17:37:59.543Z,1.77
2023-03-16T17:40:45.328Z,1.73
2023-03-16T17:43:31.727Z,1.85
2023-03-16T17:46:24.262Z,1.85
2023-03-16T17:49:24.406Z,2.33
2023-03-16T17:52:18.628Z,1.65
2023-03-16T17:55:05.225Z,2.15
2023-03-16T17:57:56.688Z,1.95
2023-03-16T18:00:48.044Z,1.95
2023-03-16T18:03:33.229Z,1.85
2023-03-16T18:06:25.554Z,2.50
2023-03-16T18:09:11.163Z,2.22
2023-03-16T18:11:56.428Z,1.90
2023-03-16T18:14:44.265Z,2.47
2023-03-16T18:17:32.532Z,1.60
2023-03-16T18:20:27.747Z,1.60
2023-03-16T18:23:29.151Z,2.20
2023-03-16T18:26:16.786Z,2.20
2023-03-16T18:29:01.919Z,1.45
2023-03-16T18:31:47.867Z,2.03
2023-03-16T18:34:35.490Z,1.85
2023-03-16T18:37:23.438Z,2.13
2023-03-16T18:40:18.950Z,1.98
2023-03-16T18:43:08.538Z,1.50
2023-03-16T18:45:54.934Z,1.70
2023-03-16T18:48:48.853Z,1.90
2023-03-16T18:54:32.144Z,1.77
2023-03-16T18:57:22.248Z,1.70
2023-03-16T19:00:08.109Z,2.20
2023-03-16T19:03:02.048Z,1.40
2023-03-16T19:05:47.309Z,1.48
2023-03-16T19:08:34.215Z,1.60
2023-03-16T19:11:19.852Z,1.60
2023-03-16T19:14:15.102Z,1.67
2023-03-16T19:17:05.316Z,1.70
2023-03-16T19:19:52.191Z,1.58
2023-03-16T19:22:40.497Z,2.17
2023-03-16T19:25:38.276Z,1.70
2023-03-16T19:28:40.560Z,2.35
2023-03-16T19:31:28.051Z,1.80
2023-03-16T19:34:18.456Z,1.75
2023-03-16T19:37:03.306Z,1.80
2023-03-16T19:39:48.576Z,1.58
2023-03-16T19:42:34.263Z,1.58
2023-03-16T19:45:29.240Z,1.45
2023-03-16T19:48:23.050Z,1.38
2023-03-16T19:51:35.738Z,1.80
2023-03-16T19:54:26.691Z,1.58
2023-03-16T19:57:17.177Z,1.60
2023-03-16T20:00:02.440Z,1.70
2023-03-16T20:02:48.383Z,1.30
2023-03-16T20:05:33.657Z,1.92
2023-03-16T20:08:28.466Z,2.03
2023-03-16T20:11:27.656Z,2.33
2023-03-16T20:14:23.679Z,1.60
2023-03-16T20:17:22.608Z,1.45
2023-03-16T20:20:18.349Z,2.08
2023-03-16T20:23:26.922Z,1.70
2023-03-16T20:26:22.894Z,2.03
2023-03-16T20:29:28.482Z,1.67
2023-03-16T20:32:22.954Z,1.67
2023-03-16T20:35:16.974Z,1.70
2023-03-16T20:38:01.897Z,2.03
2023-03-16T20:40:51.060Z,1.63
2023-03-16T20:43:36.183Z,1.80
2023-03-16T20:46:32.593Z,1.80
2023-03-16T20:49:29.147Z,1.60
2023-03-16T20:52:22.728Z,1.48
2023-03-16T20:55:12.904Z,1.70
2023-03-16T20:57:58.924Z,1.73
2023-03-16T21:00:45.563Z,2.00
2023-03-16T21:03:33.264Z,1.65
2023-03-16T21:06:24.343Z,1.80
2023-03-16T21:09:12.261Z,1.70
2023-03-16T21:11:57.384Z,1.70
2023-03-16T21:14:42.308Z,1.83
2023-03-16T21:17:34.412Z,2.03
2023-03-16T21:20:21.440Z,1.92
2023-03-16T21:23:13.731Z,2.08
2023-03-16T21:26:03.580Z,1.77
2023-03-16T21:29:01.350Z,1.98
2023-03-16T21:31:46.244Z,2.03
2023-03-16T21:34:36.150Z,1.50
2023-03-16T21:37:26.726Z,2.15
2023-03-16T21:40:20.794Z,2.00
2023-03-16T21:43:06.220Z,1.90
2023-03-16T21:45:52.353Z,1.60
2023-03-16T21:48:39.993Z,1.60
2023-03-16T21:51:30.107Z,1.83
2023-03-16T21:54:16.763Z,1.67
2023-03-16T21:57:02.726Z,1.90
2023-03-16T21:59:50.149Z,1.70
2023-03-16T22:02:36.912Z,2.00
2023-03-16T22:05:34.986Z,2.00
2023-03-16T22:08:30.541Z,1.80
2023-03-16T22:11:25.263Z,2.50
2023-03-16T22:14:11.780Z,1.60
2023-03-16T22:16:57.258Z,1.50
2023-03-16T22:19:42.358Z,1.60
2023-03-16T22:22:31.890Z,2.50
2023-03-16T22:25:21.856Z,1.70
2023-03-16T22:28:11.446Z,2.08
2023-03-16T22:30:58.167Z,1.45
2023-03-16T22:33:44.168Z,1.67
2023-03-16T22:36:32.766Z,1.38
2023-03-16T22:39:18.123Z,1.95
2023-03-16T22:42:22.233Z,1.88
2023-03-16T22:45:28.041Z,1.70
2023-03-16T22:48:22.332Z,1.80
2023-03-16T22:51:31.378Z,1.70
2023-03-16T22:54:21.175Z,1.73
2023-03-16T22:57:07.117Z,2.03
2023-03-16T22:59:52.631Z,2.00
2023-03-16T23:02:37.488Z,1.80
2023-03-16T23:05:25.576Z,1.95
2023-03-16T23:08:21.051Z,1.67
2023-03-16T23:11:13.584Z,1.70
2023-03-16T23:14:00.345Z,1.80
2023-03-16T23:16:47.150Z,1.45
2023-03-16T23:19:34.269Z,1.90
2023-03-16T23:22:19.079Z,1.75
2023-03-16T23:25:04.265Z,1.67
2023-03-16T23:27:51.405Z,1.77
2023-03-16T23:30:36.367Z,2.40
2023-03-16T23:33:22.032Z,1.83
2023-03-16T23:36:14.645Z,1.70
2023-03-16T23:39:00.591Z,1.50
2023-03-16T23:41:49.496Z,1.90
2023-03-16T23:44:34.552Z,1.73
2023-03-16T23:47:21.440Z,1.95
2023-03-16T23:50:07.944Z,1.83
2023-03-16T23:52:53.004Z,2.22
2023-03-16T23:55:38.291Z,1.98
2023-03-16T23:58:23.888Z,2.10
